createdAt,value
2022-12-31T00:00:22.740Z,3.84
2022-12-31T00:01:26.913Z,3.74
2022-12-31T00:02:30.109Z,3.98
2022-12-31T00:03:34.540Z,3.84
2022-12-31T00:04:37.651Z,4.27
2022-12-31T00:05:40.716Z,3.59
2022-12-31T00:06:44.145Z,4.08
2022-12-31T00:07:47.322Z,3.89
2022-12-31T00:08:52.023Z,4.41
2022-12-31T00:09:54.964Z,4.18
2022-12-31T00:10:58.027Z,4.15
2022-12-31T00:12:01.059Z,3.83
2022-12-31T00:13:04.200Z,4.37
2022-12-31T00:14:07.452Z,3.74
2022-12-31T00:15:10.811Z,3.87
2022-12-31T00:16:16.577Z,3.98
2022-12-31T00:17:19.573Z,4.06
2022-12-31T00:18:22.660Z,4.04
2022-12-31T00:19:25.840Z,4.31
2022-12-31T00:20:29.289Z,3.72
2022-12-31T00:21:33.953Z,4.04
2022-12-31T00:22:37.228Z,4.26
2022-12-31T00:23:40.547Z,4.16
2022-12-31T00:24:43.650Z,4.17
2022-12-31T00:25:46.863Z,4.41
2022-12-31T00:26:50.087Z,4.17
2022-12-31T00:27:54.057Z,3.96
2022-12-31T00:28:58.438Z,3.88
2022-12-31T00:30:04.728Z,4.04
2022-12-31T00:32:19.736Z,4.10
2022-12-31T00:33:22.870Z,3.73
2022-12-31T00:34:26.046Z,4.04
2022-12-31T00:35:29.188Z,4.56
2022-12-31T00:36:37.422Z,4.02
2022-12-31T00:37:40.570Z,4.28
2022-12-31T00:38:45.753Z,4.18
2022-12-31T00:39:48.799Z,4.06
2022-12-31T00:40:51.950Z,4.08
2022-12-31T00:41:55.137Z,3.98
2022-12-31T00:42:58.271Z,4.17
2022-12-31T00:44:01.601Z,3.82
2022-12-31T00:45:05.239Z,4.28
2022-12-31T00:46:09.430Z,4.05
2022-12-31T00:47:12.549Z,3.81
2022-12-31T00:48:15.683Z,3.72
2022-12-31T00:49:18.968Z,4.01
2022-12-31T00:50:22.007Z,4.14
2022-12-31T00:51:26.861Z,4.62
2022-12-31T00:52:30.041Z,3.86
2022-12-31T00:53:33.657Z,4.09
2022-12-31T00:54:36.873Z,3.73
2022-12-31T00:55:40.109Z,4.05
2022-12-31T00:56:43.321Z,3.95
2022-12-31T00:57:46.497Z,4.07
2022-12-31T00:58:50.602Z,3.81
2022-12-31T00:59:53.688Z,3.98
2022-12-31T01:00:57.410Z,3.90
2022-12-31T01:02:00.754Z,3.63
2022-12-31T01:03:04.446Z,4.21
2022-12-31T01:04:10.999Z,4.91
2022-12-31T01:05:14.297Z,3.94
2022-12-31T01:06:18.344Z,4.34
2022-12-31T01:07:21.411Z,3.95
2022-12-31T01:08:24.524Z,4.37
2022-12-31T01:09:27.604Z,3.90
2022-12-31T01:10:49.114Z,4.26
2022-12-31T01:11:52.190Z,4.21
2022-12-31T01:12:55.374Z,4.03
2022-12-31T01:14:13.164Z,4.15
2022-12-31T01:15:16.287Z,3.97
2022-12-31T01:16:22.650Z,4.24
2022-12-31T01:17:25.758Z,4.67
2022-12-31T01:18:28.916Z,4.82
2022-12-31T01:19:32.038Z,4.54
2022-12-31T01:20:40.139Z,4.49
2022-12-31T01:21:45.196Z,5.38
2022-12-31T01:22:48.290Z,4.80
2022-12-31T01:23:51.475Z,5.04
2022-12-31T01:24:54.821Z,5.37
2022-12-31T01:26:02.853Z,4.74
2022-12-31T01:27:06.106Z,5.03
2022-12-31T01:28:09.736Z,4.83
2022-12-31T01:29:14.035Z,5.08
2022-12-31T01:30:17.409Z,4.58
2022-12-31T01:31:22.254Z,5.16
2022-12-31T01:32:26.219Z,4.57
2022-12-31T01:33:29.405Z,4.64
2022-12-31T01:34:32.593Z,4.89
2022-12-31T01:35:36.058Z,4.93
2022-12-31T01:36:40.022Z,4.57
2022-12-31T01:37:43.217Z,4.82
2022-12-31T01:38:46.411Z,4.13
2022-12-31T01:39:49.687Z,4.54
2022-12-31T01:40:53.068Z,4.24
2022-12-31T01:41:56.248Z,4.66
2022-12-31T01:42:59.428Z,4.36
2022-12-31T01:44:14.256Z,4.41
2022-12-31T01:45:17.456Z,4.42
2022-12-31T01:46:30.041Z,4.09
2022-12-31T01:47:36.833Z,4.14
2022-12-31T01:48:40.267Z,4.29
2022-12-31T01:49:55.944Z,4.87
2022-12-31T01:50:59.488Z,4.53
2022-12-31T01:52:21.040Z,4.14
2022-12-31T01:53:24.696Z,4.59
2022-12-31T01:54:31.733Z,4.79
2022-12-31T01:55:38.411Z,5.16
2022-12-31T01:56:44.891Z,4.29
2022-12-31T01:57:51.554Z,4.48
2022-12-31T01:58:56.825Z,4.53
2022-12-31T02:00:01.386Z,5.06
2022-12-31T02:01:06.740Z,4.98
2022-12-31T02:02:10.086Z,5.10
2022-12-31T02:03:14.110Z,4.30
2022-12-31T02:04:17.552Z,4.98
2022-12-31T02:05:33.297Z,4.31
2022-12-31T02:06:40.052Z,4.63
2022-12-31T02:07:44.244Z,5.37
2022-12-31T02:08:47.946Z,4.56
2022-12-31T02:09:51.890Z,4.81
2022-12-31T02:10:54.944Z,4.87
2022-12-31T02:11:58.104Z,4.90
2022-12-31T02:13:01.542Z,4.71
2022-12-31T02:14:11.251Z,4.56
2022-12-31T02:15:15.591Z,5.18
2022-12-31T02:16:25.590Z,4.65
2022-12-31T02:17:44.054Z,4.93
2022-12-31T02:19:09.819Z,4.44
2022-12-31T02:20:26.151Z,5.08
2022-12-31T02:21:41.842Z,4.83
2022-12-31T02:22:57.694Z,5.17
2022-12-31T02:24:25.453Z,5.15
2022-12-31T02:25:51.696Z,4.55
2022-12-31T02:27:10.279Z,5.30
2022-12-31T02:28:36.729Z,5.06
2022-12-31T02:30:13.427Z,4.73
2022-12-31T02:31:35.421Z,5.19
2022-12-31T02:33:02.655Z,4.79
2022-12-31T02:34:21.090Z,4.69
2022-12-31T02:36:42.155Z,5.92
2022-12-31T02:37:48.579Z,5.62
2022-12-31T02:38:52.333Z,5.09
2022-12-31T02:39:56.190Z,5.39
2022-12-31T02:41:00.587Z,5.86
2022-12-31T02:42:03.850Z,6.29
2022-12-31T02:43:07.284Z,5.41
2022-12-31T02:44:29.026Z,5.53
2022-12-31T02:45:35.734Z,5.86
2022-12-31T02:46:42.378Z,6.33
2022-12-31T02:47:52.055Z,6.26
2022-12-31T02:49:13.812Z,6.12
2022-12-31T02:50:35.648Z,5.82
2022-12-31T02:51:57.277Z,6.51
2022-12-31T02:53:13.057Z,6.12
2022-12-31T02:54:22.335Z,6.29
2022-12-31T02:55:46.871Z,6.01
2022-12-31T02:57:13.193Z,6.06
2022-12-31T02:58:27.403Z,5.61
2022-12-31T02:59:52.457Z,6.18
2022-12-31T03:01:16.067Z,6.18
2022-12-31T03:02:22.898Z,5.94
2022-12-31T03:03:27.259Z,6.42
2022-12-31T03:04:33.084Z,5.57
2022-12-31T03:05:42.580Z,6.06
2022-12-31T03:06:46.361Z,6.38
2022-12-31T03:07:49.533Z,6.28
2022-12-31T03:09:06.306Z,6.17
2022-12-31T03:11:39.527Z,5.72
2022-12-31T03:12:47.102Z,6.03
2022-12-31T03:13:50.325Z,6.24
2022-12-31T03:14:53.673Z,5.96
2022-12-31T03:15:56.918Z,6.04
2022-12-31T03:16:59.962Z,5.86
2022-12-31T03:18:06.574Z,5.87
2022-12-31T03:19:28.146Z,5.56
2022-12-31T03:20:58.547Z,5.79
2022-12-31T03:22:20.156Z,6.27
2022-12-31T03:23:29.468Z,7.16
2022-12-31T03:24:51.026Z,5.84
2022-12-31T03:25:55.764Z,6.17
2022-12-31T03:26:58.820Z,5.93
2022-12-31T03:28:03.854Z,6.19
2022-12-31T03:29:06.939Z,6.08
2022-12-31T03:30:12.034Z,6.54
2022-12-31T03:31:15.983Z,6.19
2022-12-31T03:32:19.152Z,5.92
2022-12-31T03:33:23.506Z,6.34
2022-12-31T03:34:26.753Z,5.79
2022-12-31T03:35:31.501Z,6.25
2022-12-31T03:36:34.695Z,5.81
2022-12-31T03:37:39.467Z,5.82
2022-12-31T03:38:42.918Z,6.76
2022-12-31T03:39:45.999Z,5.87
2022-12-31T03:40:51.576Z,6.40
2022-12-31T03:41:54.756Z,6.04
2022-12-31T03:42:58.105Z,5.98
2022-12-31T03:44:01.333Z,5.99
2022-12-31T03:45:05.140Z,5.97
2022-12-31T03:46:08.670Z,5.04
2022-12-31T03:47:11.795Z,6.03
2022-12-31T03:48:14.793Z,5.82
2022-12-31T03:49:17.908Z,5.59
2022-12-31T03:50:20.949Z,5.17
2022-12-31T03:51:24.001Z,5.84
2022-12-31T03:52:27.184Z,5.32
2022-12-31T03:53:30.214Z,5.79
2022-12-31T03:54:33.349Z,5.36
2022-12-31T03:55:36.497Z,5.39
2022-12-31T03:56:39.727Z,5.19
2022-12-31T03:57:42.787Z,4.85
2022-12-31T03:58:46.133Z,4.78
2022-12-31T03:59:49.204Z,4.61
2022-12-31T04:00:52.334Z,5.09
2022-12-31T04:01:55.443Z,5.26
2022-12-31T04:02:58.765Z,5.23
2022-12-31T04:04:02.166Z,5.24
2022-12-31T04:05:06.160Z,5.44
2022-12-31T04:06:09.621Z,4.88
2022-12-31T04:07:12.983Z,5.64
2022-12-31T04:08:16.176Z,5.76
2022-12-31T04:09:19.428Z,5.69
2022-12-31T04:10:22.856Z,5.16
2022-12-31T04:11:25.915Z,4.76
2022-12-31T04:12:28.972Z,5.74
2022-12-31T04:13:32.033Z,5.21
2022-12-31T04:14:35.308Z,5.47
2022-12-31T04:15:38.454Z,5.44
2022-12-31T04:16:41.776Z,6.40
2022-12-31T04:17:45.193Z,6.69
2022-12-31T04:18:48.320Z,5.83
2022-12-31T04:19:51.739Z,5.99
2022-12-31T04:20:54.900Z,5.92
2022-12-31T04:21:58.054Z,5.75
2022-12-31T04:23:01.341Z,5.51
2022-12-31T04:24:04.933Z,5.91
2022-12-31T04:25:11.499Z,5.63
2022-12-31T04:26:15.753Z,5.61
2022-12-31T04:27:18.935Z,5.56
2022-12-31T04:28:22.304Z,4.96
2022-12-31T04:29:25.641Z,5.53
2022-12-31T04:30:28.801Z,5.40
2022-12-31T04:31:32.190Z,4.96
2022-12-31T04:32:35.299Z,5.92
2022-12-31T04:33:38.494Z,5.41
2022-12-31T04:34:41.802Z,6.24
2022-12-31T04:35:44.901Z,5.80
2022-12-31T04:36:48.101Z,6.51
2022-12-31T04:37:51.313Z,5.77
2022-12-31T04:38:55.249Z,6.12
2022-12-31T04:40:03.694Z,6.41
2022-12-31T04:41:19.214Z,6.24
2022-12-31T04:42:22.533Z,6.46
2022-12-31T04:43:25.824Z,6.67
2022-12-31T04:44:28.829Z,6.51
2022-12-31T04:45:31.986Z,7.01
2022-12-31T04:46:35.276Z,6.38
2022-12-31T04:47:38.237Z,7.12
2022-12-31T04:48:41.222Z,6.85
2022-12-31T04:49:44.260Z,6.84
2022-12-31T04:50:47.320Z,6.33
2022-12-31T04:51:50.457Z,6.23
2022-12-31T04:52:53.742Z,6.83
2022-12-31T04:53:57.418Z,6.36
2022-12-31T04:55:00.681Z,6.86
2022-12-31T04:56:04.733Z,6.94
2022-12-31T04:57:07.806Z,6.86
2022-12-31T04:58:10.854Z,6.52
2022-12-31T04:59:13.900Z,6.59
2022-12-31T05:00:17.282Z,5.82
2022-12-31T05:01:21.451Z,6.86
2022-12-31T05:02:24.655Z,6.81
2022-12-31T05:03:27.971Z,7.45
2022-12-31T05:04:31.158Z,7.20
2022-12-31T05:05:37.775Z,7.06
2022-12-31T05:06:40.834Z,7.04
2022-12-31T05:07:44.346Z,6.61
2022-12-31T05:08:48.179Z,6.87
2022-12-31T05:09:51.435Z,7.28
2022-12-31T05:10:54.925Z,6.92
2022-12-31T05:11:58.767Z,6.58
2022-12-31T05:13:02.113Z,7.76
2022-12-31T05:14:05.079Z,6.76
2022-12-31T05:15:08.776Z,7.87
2022-12-31T05:16:12.222Z,7.71
2022-12-31T05:17:15.330Z,7.29
2022-12-31T05:18:18.681Z,7.09
2022-12-31T05:19:21.629Z,7.13
2022-12-31T05:20:24.566Z,7.49
2022-12-31T05:21:27.741Z,7.12
2022-12-31T05:22:30.795Z,7.74
2022-12-31T05:23:34.131Z,7.09
2022-12-31T05:24:37.296Z,8.11
2022-12-31T05:25:42.810Z,7.19
2022-12-31T05:26:45.926Z,7.51
2022-12-31T05:27:49.024Z,7.43
2022-12-31T05:28:52.284Z,8.10
2022-12-31T05:29:55.508Z,7.52
2022-12-31T05:31:00.015Z,7.59
2022-12-31T05:32:03.236Z,7.96
2022-12-31T05:33:06.417Z,8.23
2022-12-31T05:34:09.602Z,8.36
2022-12-31T05:35:12.880Z,6.99
2022-12-31T05:36:16.146Z,8.13
2022-12-31T05:37:19.209Z,8.76
2022-12-31T05:38:22.377Z,8.32
2022-12-31T05:39:25.552Z,7.37
2022-12-31T05:40:28.664Z,8.19
2022-12-31T05:41:31.848Z,8.80
2022-12-31T05:42:35.309Z,7.84
2022-12-31T05:43:38.475Z,8.38
2022-12-31T05:44:41.676Z,8.28
2022-12-31T05:45:44.945Z,8.66
2022-12-31T05:46:48.058Z,9.19
2022-12-31T05:47:52.356Z,8.34
2022-12-31T05:48:55.656Z,9.14
2022-12-31T05:49:58.861Z,9.24
2022-12-31T05:51:02.943Z,8.94
2022-12-31T05:52:06.556Z,8.07
2022-12-31T05:53:09.749Z,9.03
2022-12-31T05:54:13.030Z,8.66
2022-12-31T05:55:16.173Z,10.12
2022-12-31T05:56:20.163Z,9.11
2022-12-31T05:57:23.353Z,9.83
2022-12-31T05:58:27.849Z,9.45
2022-12-31T05:59:30.954Z,9.58
2022-12-31T06:00:34.128Z,9.41
2022-12-31T06:01:37.389Z,10.06
2022-12-31T06:02:40.975Z,9.39
2022-12-31T06:03:44.378Z,9.58
2022-12-31T06:04:47.879Z,9.97
2022-12-31T06:05:51.170Z,9.68
2022-12-31T06:06:55.198Z,9.44
2022-12-31T06:07:58.718Z,10.12
2022-12-31T06:09:02.097Z,9.66
2022-12-31T06:10:07.412Z,9.32
2022-12-31T06:11:10.521Z,10.44
2022-12-31T06:12:13.801Z,9.78
2022-12-31T06:13:16.901Z,10.52
2022-12-31T06:14:20.095Z,10.04
2022-12-31T06:15:23.234Z,10.06
2022-12-31T06:16:26.763Z,10.68
2022-12-31T06:17:31.890Z,11.04
2022-12-31T06:18:34.965Z,10.00
2022-12-31T06:19:39.024Z,11.04
2022-12-31T06:20:41.944Z,10.28
2022-12-31T06:21:45.053Z,10.63
2022-12-31T06:22:48.219Z,11.76
2022-12-31T06:23:51.326Z,10.64
2022-12-31T06:24:54.511Z,11.64
2022-12-31T06:26:03.149Z,11.40
2022-12-31T06:27:06.325Z,11.09
2022-12-31T06:28:12.183Z,11.66
2022-12-31T06:29:14.611Z,12.00
2022-12-31T06:30:17.842Z,11.68
2022-12-31T06:31:21.068Z,12.18
2022-12-31T06:32:24.187Z,10.81
2022-12-31T06:33:27.810Z,12.19
2022-12-31T06:34:30.953Z,12.04
2022-12-31T06:35:34.028Z,11.89
2022-12-31T06:36:37.185Z,11.35
2022-12-31T06:37:40.208Z,13.13
2022-12-31T06:38:43.943Z,13.06
2022-12-31T06:39:47.181Z,12.99
2022-12-31T06:40:50.300Z,13.36
2022-12-31T06:41:53.696Z,12.89
2022-12-31T06:43:00.106Z,12.24
2022-12-31T06:44:03.039Z,13.14
2022-12-31T06:45:06.918Z,12.79
2022-12-31T06:46:12.394Z,13.25
2022-12-31T06:47:15.649Z,13.77
2022-12-31T06:48:18.744Z,13.29
2022-12-31T06:49:21.935Z,14.39
2022-12-31T06:50:25.231Z,14.23
2022-12-31T06:51:29.792Z,13.84
2022-12-31T06:52:33.123Z,14.34
2022-12-31T06:53:36.168Z,14.41
2022-12-31T06:54:39.798Z,14.52
2022-12-31T06:55:43.402Z,14.65
2022-12-31T06:56:46.891Z,14.36
2022-12-31T06:57:50.313Z,13.75
2022-12-31T06:58:53.963Z,14.38
2022-12-31T06:59:57.585Z,14.82
2022-12-31T07:01:13.169Z,14.02
2022-12-31T07:02:53.253Z,15.08
2022-12-31T07:04:31.906Z,14.99
2022-12-31T07:05:47.828Z,15.93
2022-12-31T07:08:17.418Z,15.72
2022-12-31T07:09:33.127Z,16.44
2022-12-31T07:10:42.954Z,15.97
2022-12-31T07:11:52.211Z,16.20
2022-12-31T07:13:19.814Z,16.40
2022-12-31T07:14:29.216Z,15.63
2022-12-31T07:15:48.153Z,15.51
2022-12-31T07:17:23.788Z,16.40
2022-12-31T07:18:39.541Z,17.44
2022-12-31T07:20:04.491Z,16.76
2022-12-31T07:21:13.072Z,16.63
2022-12-31T07:22:16.899Z,16.26
2022-12-31T07:23:20.591Z,16.12
2022-12-31T07:24:24.046Z,17.81
2022-12-31T07:25:27.598Z,17.26
2022-12-31T07:26:57.063Z,16.56
2022-12-31T07:28:06.874Z,17.69
2022-12-31T07:31:01.945Z,16.76
2022-12-31T07:32:20.164Z,17.03
2022-12-31T07:35:34.735Z,16.31
2022-12-31T07:36:46.488Z,17.72
2022-12-31T07:39:41.178Z,16.86
2022-12-31T07:41:07.311Z,17.21
2022-12-31T07:42:18.146Z,17.82
2022-12-31T07:43:45.337Z,18.71
2022-12-31T07:45:03.982Z,16.70
2022-12-31T07:46:27.683Z,16.18
2022-12-31T07:47:31.253Z,16.82
2022-12-31T07:48:34.641Z,14.97
2022-12-31T07:49:40.359Z,16.43
2022-12-31T07:50:43.966Z,16.92
2022-12-31T07:51:47.440Z,17.26
2022-12-31T07:52:50.636Z,17.37
2022-12-31T07:53:53.730Z,16.73
2022-12-31T07:54:56.776Z,15.61
2022-12-31T07:56:02.179Z,16.54
2022-12-31T07:57:05.436Z,16.39
2022-12-31T07:59:47.323Z,16.89
2022-12-31T08:00:54.320Z,16.05
2022-12-31T08:02:29.987Z,15.58
2022-12-31T08:03:51.937Z,16.13
2022-12-31T08:05:24.241Z,15.97
2022-12-31T08:06:39.832Z,16.31
2022-12-31T08:08:03.270Z,16.32
2022-12-31T08:09:21.961Z,15.36
2022-12-31T08:10:37.692Z,15.21
2022-12-31T08:11:56.400Z,16.18
2022-12-31T08:13:03.242Z,16.99
2022-12-31T08:14:09.842Z,15.04
2022-12-31T08:15:15.043Z,15.97
2022-12-31T08:16:18.549Z,16.70
2022-12-31T08:17:22.020Z,14.79
2022-12-31T08:18:25.359Z,14.79
2022-12-31T08:19:31.103Z,14.78
2022-12-31T08:20:46.962Z,15.16
2022-12-31T08:23:21.995Z,15.17
2022-12-31T08:24:43.772Z,15.03
2022-12-31T08:26:14.778Z,14.46
2022-12-31T08:28:43.969Z,14.00
2022-12-31T08:29:53.513Z,15.42
2022-12-31T08:31:12.459Z,14.42
2022-12-31T08:32:28.282Z,14.13
2022-12-31T08:33:44.119Z,15.37
2022-12-31T08:35:13.417Z,14.45
2022-12-31T08:36:23.541Z,14.69
2022-12-31T08:37:30.310Z,13.99
2022-12-31T08:38:49.162Z,14.93
2022-12-31T08:40:25.803Z,14.43
2022-12-31T08:41:40.690Z,13.96
2022-12-31T08:42:46.778Z,14.81
2022-12-31T08:44:19.036Z,13.99
2022-12-31T08:46:59.003Z,13.01
2022-12-31T08:48:26.154Z,13.88
2022-12-31T08:49:32.498Z,13.95
2022-12-31T08:50:35.827Z,14.18
2022-12-31T08:51:39.380Z,13.91
2022-12-31T08:52:42.802Z,14.39
2022-12-31T08:53:47.691Z,14.11
2022-12-31T08:54:51.481Z,13.86
2022-12-31T08:56:01.001Z,14.15
2022-12-31T08:57:07.819Z,12.73
2022-12-31T08:58:49.538Z,12.48
2022-12-31T09:00:05.325Z,11.90
2022-12-31T09:01:09.310Z,12.10
2022-12-31T09:02:44.685Z,12.32
2022-12-31T09:03:57.421Z,13.01
2022-12-31T09:05:13.179Z,12.99
2022-12-31T09:08:11.318Z,12.49
2022-12-31T09:09:26.763Z,12.99
2022-12-31T09:10:33.336Z,12.04
2022-12-31T09:11:54.338Z,12.01
2022-12-31T09:14:26.520Z,11.23
2022-12-31T09:15:39.169Z,10.65
2022-12-31T09:16:51.568Z,10.07
2022-12-31T09:17:55.935Z,11.21
2022-12-31T09:18:59.192Z,10.96
2022-12-31T09:20:02.973Z,10.48
2022-12-31T09:21:08.302Z,11.33
2022-12-31T09:22:11.782Z,11.36
2022-12-31T09:23:15.348Z,11.34
2022-12-31T09:24:18.824Z,11.57
2022-12-31T09:25:23.328Z,12.16
2022-12-31T09:26:39.099Z,10.52
2022-12-31T09:30:03.481Z,11.29
2022-12-31T09:31:12.804Z,11.00
2022-12-31T09:32:22.093Z,11.51
2022-12-31T09:33:40.757Z,11.13
2022-12-31T09:34:56.102Z,11.11
2022-12-31T09:36:02.795Z,11.56
2022-12-31T09:38:26.015Z,11.19
2022-12-31T09:39:43.265Z,10.21
2022-12-31T09:41:07.986Z,10.28
2022-12-31T09:42:20.797Z,10.15
2022-12-31T09:43:39.642Z,10.16
2022-12-31T09:45:19.467Z,10.04
2022-12-31T09:46:47.008Z,10.47
2022-12-31T09:48:13.103Z,9.54
2022-12-31T09:49:42.516Z,9.64
2022-12-31T09:51:01.316Z,10.12
2022-12-31T09:52:33.663Z,10.12
2022-12-31T09:55:25.609Z,9.68
2022-12-31T09:57:05.548Z,10.62
2022-12-31T09:58:42.253Z,10.93
2022-12-31T09:59:55.087Z,11.07
2022-12-31T10:01:18.329Z,11.71
2022-12-31T10:02:59.061Z,11.04
2022-12-31T10:04:26.843Z,10.03
2022-12-31T10:05:39.417Z,11.25
2022-12-31T10:07:02.601Z,11.78
2022-12-31T10:08:18.452Z,11.96
2022-12-31T10:09:34.096Z,11.00
2022-12-31T10:10:47.486Z,11.50
2022-12-31T10:14:00.379Z,11.62
2022-12-31T10:15:22.095Z,10.23
2022-12-31T10:16:40.553Z,11.29
2022-12-31T10:18:02.378Z,10.34
2022-12-31T10:19:15.215Z,10.64
2022-12-31T10:20:45.472Z,10.16
2022-12-31T10:22:24.151Z,10.86
2022-12-31T10:23:47.420Z,12.09
2022-12-31T10:25:16.552Z,12.00
2022-12-31T10:27:43.451Z,12.61
2022-12-31T10:29:07.869Z,11.57
2022-12-31T10:30:19.735Z,12.44
2022-12-31T10:31:41.505Z,12.60
2022-12-31T10:32:51.343Z,11.94
2022-12-31T10:34:16.119Z,13.01
2022-12-31T10:35:43.474Z,12.53
2022-12-31T10:37:05.128Z,13.91
2022-12-31T10:38:24.013Z,11.72
2022-12-31T10:39:36.846Z,13.62
2022-12-31T10:41:13.984Z,13.02
2022-12-31T10:42:46.892Z,12.59
2022-12-31T10:44:25.327Z,12.04
2022-12-31T10:45:37.975Z,12.63
2022-12-31T10:48:16.506Z,12.28
2022-12-31T10:49:32.319Z,12.88
2022-12-31T10:50:55.629Z,12.54
2022-12-31T10:52:05.471Z,12.69
2022-12-31T10:53:18.190Z,12.89
2022-12-31T10:54:31.022Z,13.76
2022-12-31T10:56:09.548Z,13.14
2022-12-31T10:57:32.940Z,12.28
2022-12-31T10:59:05.172Z,13.13
2022-12-31T11:00:15.866Z,11.86
2022-12-31T11:03:33.481Z,10.87
2022-12-31T11:05:07.243Z,11.58
2022-12-31T11:06:30.943Z,11.69
2022-12-31T11:07:40.262Z,12.35
2022-12-31T11:08:52.803Z,12.18
2022-12-31T11:10:25.180Z,11.69
2022-12-31T11:12:03.564Z,12.51
2022-12-31T11:13:37.458Z,12.55
2022-12-31T11:16:12.762Z,12.14
2022-12-31T11:19:23.192Z,12.78
2022-12-31T11:20:29.928Z,11.18
2022-12-31T11:21:51.672Z,11.94
2022-12-31T11:23:04.551Z,10.52
2022-12-31T11:24:26.464Z,11.63
2022-12-31T11:25:33.104Z,11.54
2022-12-31T11:26:58.049Z,11.64
2022-12-31T11:28:04.809Z,11.82
2022-12-31T11:29:26.269Z,11.63
2022-12-31T11:30:49.863Z,12.04
2022-12-31T11:32:08.825Z,11.04
2022-12-31T11:33:27.430Z,11.43
2022-12-31T11:34:58.183Z,11.74
2022-12-31T11:36:26.273Z,11.55
2022-12-31T11:37:39.154Z,11.94
2022-12-31T11:38:45.887Z,11.69
2022-12-31T11:40:01.216Z,11.47
2022-12-31T11:41:23.123Z,11.58
2022-12-31T11:42:50.678Z,13.24
2022-12-31T11:44:11.865Z,13.71
2022-12-31T11:45:25.497Z,12.33
2022-12-31T11:46:48.596Z,13.52
2022-12-31T11:48:30.124Z,14.04
2022-12-31T11:49:41.599Z,13.02
2022-12-31T11:50:51.269Z,12.78
2022-12-31T11:52:21.845Z,13.30
2022-12-31T11:53:37.586Z,12.61
2022-12-31T11:55:00.993Z,12.29
2022-12-31T11:56:27.516Z,12.95
2022-12-31T11:57:37.112Z,12.89
2022-12-31T11:58:43.713Z,12.01
2022-12-31T11:59:47.062Z,11.77
2022-12-31T12:00:56.754Z,11.29
2022-12-31T12:02:30.605Z,12.14
2022-12-31T12:04:48.659Z,10.17
2022-12-31T12:05:51.859Z,10.36
2022-12-31T12:06:55.175Z,11.33
2022-12-31T12:07:58.429Z,10.59
2022-12-31T12:09:08.202Z,10.54
2022-12-31T12:10:36.541Z,10.62
2022-12-31T12:11:40.102Z,11.14
2022-12-31T12:12:43.385Z,11.97
2022-12-31T12:13:46.952Z,12.41
2022-12-31T12:14:53.673Z,11.36
2022-12-31T12:16:06.595Z,12.32
2022-12-31T12:17:19.227Z,11.47
2022-12-31T12:19:51.063Z,13.29
2022-12-31T12:21:12.475Z,13.02
2022-12-31T12:24:00.894Z,12.59
2022-12-31T12:25:07.719Z,12.16
2022-12-31T12:26:37.921Z,12.87
2022-12-31T12:27:41.027Z,12.41
2022-12-31T12:28:45.889Z,13.05
2022-12-31T12:29:49.104Z,12.43
2022-12-31T12:31:04.017Z,12.26
2022-12-31T12:32:16.831Z,11.92
2022-12-31T12:33:20.605Z,11.40
2022-12-31T12:34:27.084Z,11.82
2022-12-31T12:35:35.495Z,11.34
2022-12-31T12:36:42.218Z,11.04
2022-12-31T12:37:45.408Z,11.95
2022-12-31T12:38:48.615Z,12.21
2022-12-31T12:40:01.536Z,11.19
2022-12-31T12:41:07.139Z,11.42
2022-12-31T12:42:13.871Z,11.82
2022-12-31T12:43:29.271Z,12.07
2022-12-31T12:44:34.661Z,11.43
2022-12-31T12:45:51.813Z,12.24
2022-12-31T12:46:53.525Z,11.61
2022-12-31T12:48:02.397Z,12.90
2022-12-31T12:49:05.677Z,12.66
2022-12-31T12:50:21.039Z,12.72
2022-12-31T12:51:36.913Z,12.36
2022-12-31T12:52:59.410Z,12.78
2022-12-31T12:54:19.099Z,12.18
2022-12-31T12:55:28.989Z,13.60
2022-12-31T12:56:47.442Z,12.43
2022-12-31T12:58:00.147Z,12.61
2022-12-31T12:59:21.782Z,12.26
2022-12-31T13:00:37.574Z,11.88
2022-12-31T13:02:08.513Z,11.88
2022-12-31T13:04:34.301Z,12.52
2022-12-31T13:05:53.213Z,11.96
2022-12-31T13:07:08.735Z,13.10
2022-12-31T13:08:27.528Z,11.59
2022-12-31T13:09:40.002Z,12.36
2022-12-31T13:10:52.816Z,12.88
2022-12-31T13:14:46.130Z,11.54
2022-12-31T13:16:01.254Z,11.14
2022-12-31T13:17:15.033Z,10.80
2022-12-31T13:18:24.269Z,10.42
2022-12-31T13:19:50.434Z,10.88
2022-12-31T13:21:07.687Z,10.16
2022-12-31T13:22:19.320Z,10.04
2022-12-31T13:25:25.631Z,9.71
2022-12-31T13:26:48.235Z,10.34
2022-12-31T13:27:56.511Z,9.91
2022-12-31T13:29:08.741Z,10.74
2022-12-31T13:30:27.077Z,9.93
2022-12-31T13:31:37.086Z,10.01
2022-12-31T13:33:01.282Z,10.44
2022-12-31T13:34:22.878Z,10.11
2022-12-31T13:35:32.906Z,10.31
2022-12-31T13:36:39.640Z,11.59
2022-12-31T13:37:44.580Z,10.66
2022-12-31T13:38:55.110Z,11.06
2022-12-31T13:40:22.967Z,10.35
2022-12-31T13:41:38.586Z,11.28
2022-12-31T13:42:46.329Z,10.74
2022-12-31T13:44:20.729Z,10.71
2022-12-31T13:48:15.507Z,11.47
2022-12-31T13:49:24.169Z,11.68
2022-12-31T13:50:48.451Z,11.61
2022-12-31T13:52:02.623Z,12.09
2022-12-31T13:53:29.141Z,12.16
2022-12-31T13:54:56.539Z,10.94
2022-12-31T13:56:05.378Z,10.58
2022-12-31T13:57:19.366Z,10.33
2022-12-31T14:00:03.311Z,10.35
2022-12-31T14:01:33.411Z,10.89
2022-12-31T14:02:57.879Z,11.24
2022-12-31T14:04:11.924Z,10.21
2022-12-31T14:05:22.259Z,11.56
2022-12-31T14:07:00.472Z,10.64
2022-12-31T14:08:09.977Z,10.65
2022-12-31T14:09:35.916Z,11.24
2022-12-31T14:10:43.197Z,10.89
2022-12-31T14:12:14.481Z,11.14
2022-12-31T14:15:26.334Z,10.22
2022-12-31T14:16:42.515Z,11.40
2022-12-31T14:17:50.252Z,11.63
2022-12-31T14:19:16.678Z,11.19
2022-12-31T14:20:41.471Z,11.08
2022-12-31T14:22:11.126Z,10.82
2022-12-31T14:23:44.701Z,11.14
2022-12-31T14:24:54.774Z,11.43
2022-12-31T14:26:02.975Z,11.36
2022-12-31T14:29:14.188Z,11.44
2022-12-31T14:30:28.885Z,11.36
2022-12-31T14:31:36.403Z,11.88
2022-12-31T14:33:01.181Z,11.56
2022-12-31T14:36:10.963Z,10.70
2022-12-31T14:37:35.208Z,11.21
2022-12-31T14:38:46.965Z,11.24
2022-12-31T14:40:10.882Z,11.73
2022-12-31T14:41:32.032Z,11.82
2022-12-31T14:42:48.715Z,10.75
2022-12-31T14:44:28.161Z,11.78
2022-12-31T14:45:47.962Z,10.77
2022-12-31T14:49:06.398Z,11.50
2022-12-31T14:50:28.987Z,12.04
2022-12-31T14:51:45.562Z,12.21
2022-12-31T14:53:09.981Z,12.57
2022-12-31T14:54:40.990Z,13.16
2022-12-31T14:55:44.262Z,13.08
2022-12-31T14:56:50.917Z,12.43
2022-12-31T14:59:07.932Z,13.26
2022-12-31T15:00:38.197Z,12.92
2022-12-31T15:03:19.912Z,12.93
2022-12-31T15:04:35.825Z,13.94
2022-12-31T15:05:44.133Z,12.81
2022-12-31T15:09:09.892Z,14.07
2022-12-31T15:10:39.098Z,13.75
2022-12-31T15:12:01.751Z,12.88
2022-12-31T15:15:18.126Z,12.98
2022-12-31T15:16:29.683Z,12.63
2022-12-31T15:19:26.763Z,12.67
2022-12-31T15:20:56.928Z,11.25
2022-12-31T15:22:25.763Z,11.28
2022-12-31T15:23:40.501Z,11.10
2022-12-31T15:24:50.334Z,11.98
2022-12-31T15:26:02.362Z,11.09
2022-12-31T15:27:38.723Z,11.24
2022-12-31T15:28:43.777Z,10.49
2022-12-31T15:29:50.792Z,10.84
2022-12-31T15:31:05.822Z,11.24
2022-12-31T15:32:30.695Z,11.22
2022-12-31T15:33:41.092Z,11.52
2022-12-31T15:34:54.854Z,11.35
2022-12-31T15:36:12.389Z,11.24
2022-12-31T15:37:36.489Z,11.23
2022-12-31T15:38:41.547Z,11.59
2022-12-31T15:39:46.441Z,11.69
2022-12-31T15:44:04.286Z,11.64
2022-12-31T15:45:18.493Z,10.79
2022-12-31T15:48:06.439Z,11.13
2022-12-31T15:51:03.268Z,11.78
2022-12-31T15:52:11.073Z,12.41
2022-12-31T15:53:22.769Z,11.47
2022-12-31T15:54:39.390Z,10.94
2022-12-31T15:55:59.770Z,12.06
2022-12-31T15:57:09.489Z,11.27
2022-12-31T15:59:38.105Z,12.47
2022-12-31T16:01:10.754Z,12.69
2022-12-31T16:02:29.118Z,11.52
2022-12-31T16:04:58.123Z,11.32
2022-12-31T16:06:17.437Z,11.81
2022-12-31T16:07:24.726Z,12.36
2022-12-31T16:08:35.233Z,12.19
2022-12-31T16:09:40.873Z,11.99
2022-12-31T16:11:00.868Z,11.93
2022-12-31T16:12:21.717Z,11.90
2022-12-31T16:13:29.273Z,10.79
2022-12-31T16:14:52.252Z,11.81
2022-12-31T16:16:07.360Z,11.98
2022-12-31T16:17:52.062Z,10.77
2022-12-31T16:18:58.068Z,10.74
2022-12-31T16:21:47.243Z,10.47
2022-12-31T16:23:02.260Z,11.23
2022-12-31T16:24:20.857Z,11.65
2022-12-31T16:25:33.545Z,11.52
2022-12-31T16:27:44.713Z,11.72
2022-12-31T16:28:49.259Z,11.26
2022-12-31T16:30:01.685Z,11.39
2022-12-31T16:31:08.494Z,11.06
2022-12-31T16:32:15.693Z,10.32
2022-12-31T16:33:19.186Z,11.37
2022-12-31T16:34:25.793Z,10.96
2022-12-31T16:35:31.775Z,11.74
2022-12-31T16:36:35.548Z,10.74
2022-12-31T16:37:38.909Z,10.71
2022-12-31T16:38:42.412Z,11.05
2022-12-31T16:39:58.094Z,10.98
2022-12-31T16:41:05.107Z,10.53